You are not logged in, Click here to log in
廊曼國際機場DMK / VTBD 泰國曼谷
ICAO: VTBD Country: 泰國曼谷
Latitude: 13.9133 Longitude: 100.604
Total Arrivals: 7 Total Departures: 7
Latest Arrival: SL177 (VVTS-VTBD)CHU. CHUHAO Latest Departure: L7S66 (VTBD-VTSP)CHU. CHUHAO
Scenery:
METAR : VTBD 131000Z 05007KT 360V090 9999 FEW040 31/16 Q1013 NOSIG

廊曼國際機場DMK

You are accessing this site from IP address 100.26.176.182. Virtual Airline. CMS by phpVMS.Website designed by Zumeweb and edited by Theo Bearman.
There is 0 User(s) Online: | and 11 Guest(s) Online.
All information on this site is for fight simulation purposes only. This site is for flight logging for pilots of Virtual Airline&模擬飛行論壇 FlySim only.